Time;durP1;ratioP1;P1;durP2;ratioP2;P2;SDS_P1;SDS_P2;PMS_P1;PMS_P2;Temp;Humidity;BMP_temperature;BMP_pressure;BME280_temperature;BME280_humidity;BME280_pressure;Samples;Min_cycle;Max_cycle;Signal;HPM_P1;HPM_P2
2022/09/30 00:01:31;;;;;;;28.75;22.55;;;;;;;5.61;100.00;100698.94;5032711;28;20112;-61
2022/09/30 00:03:57;;;;;;;30.42;23.08;;;;;;;5.56;100.00;100698.94;5031193;28;20427;-60
2022/09/30 00:06:24;;;;;;;30.13;22.98;;;;;;;5.56;100.00;100707.19;5032237;28;20037;-60
2022/09/30 00:08:49;;;;;;;29.83;23.38;;;;;;;5.54;100.00;100709.38;5031397;28;20040;-60
2022/09/30 00:11:20;;;;;;;30.08;22.42;;;;;;;5.55;100.00;100719.25;5032342;28;20029;-60
2022/09/30 00:13:49;;;;;;;29.25;22.05;;;;;;;5.53;100.00;100710.47;5033070;28;20053;-59
2022/09/30 00:16:15;;;;;;;28.95;22.50;;;;;;;5.50;100.00;100713.75;5032337;28;20029;-60
2022/09/30 00:18:42;;;;;;;29.77;23.42;;;;;;;5.50;100.00;100717.34;5031629;28;20033;-60
2022/09/30 00:21:08;;;;;;;32.50;23.17;;;;;;;5.46;100.00;100722.56;5032176;28;20091;-59
2022/09/30 00:23:36;;;;;;;28.52;22.17;;;;;;;5.44;100.00;100721.16;5032733;28;20111;-60
2022/09/30 00:26:05;;;;;;;29.40;23.30;;;;;;;5.41;100.00;100717.06;5032687;28;20022;-60
2022/09/30 00:28:30;;;;;;;29.17;23.05;;;;;;;5.41;100.00;100719.78;5030689;28;20488;-60
2022/09/30 00:31:06;;;;;;;30.05;21.92;;;;;;;5.37;100.00;100715.13;5032675;28;20140;-60
2022/09/30 00:33:31;;;;;;;29.38;21.77;;;;;;;5.29;100.00;100706.38;5023500;28;20018;-59
2022/09/30 00:35:57;;;;;;;27.33;21.27;;;;;;;5.28;100.00;100706.66;5012197;28;20465;-59
2022/09/30 00:38:22;;;;;;;26.27;20.50;;;;;;;5.25;100.00;100718.16;5012378;28;20034;-59
2022/09/30 00:40:48;;;;;;;27.02;19.70;;;;;;;5.19;100.00;100717.31;5012683;28;20029;-59
2022/09/30 00:43:38;;;;;;;25.55;19.63;;;;;;;5.13;100.00;100719.22;5011957;28;20030;-59
2022/09/30 00:46:05;;;;;;;25.15;19.25;;;;;;;5.10;100.00;100717.03;5010767;28;20350;-59
2022/09/30 00:48:35;;;;;;;23.67;18.92;;;;;;;5.06;100.00;100713.19;5010857;28;20029;-59
2022/09/30 00:51:03;;;;;;;25.10;18.25;;;;;;;5.03;100.00;100707.44;5012449;28;20452;-59
2022/09/30 00:53:38;;;;;;;24.23;17.40;;;;;;;4.93;100.00;100703.59;5011424;28;20612;-59
2022/09/30 00:56:17;;;;;;;23.13;16.60;;;;;;;5.00;100.00;100717.03;5012871;28;20108;-59
2022/09/30 00:58:59;;;;;;;22.55;16.33;;;;;;;4.98;100.00;100724.72;5012884;28;20028;-60
2022/09/30 01:01:24;;;;;;;23.13;16.77;;;;;;;4.94;100.00;100727.16;5012743;28;20026;-60
2022/09/30 01:03:55;;;;;;;23.25;17.38;;;;;;;4.93;100.00;100717.31;5012616;28;20390;-59
2022/09/30 01:06:22;;;;;;;22.83;17.20;;;;;;;4.88;100.00;100719.19;5012713;28;20026;-59
2022/09/30 01:08:48;;;;;;;23.08;17.23;;;;;;;4.86;100.00;100722.22;5012628;28;20034;-59
2022/09/30 01:11:14;;;;;;;22.98;16.10;;;;;;;4.84;100.00;100719.72;5011751;28;20036;-59
2022/09/30 01:13:41;;;;;;;22.00;16.83;;;;;;;4.79;100.00;100711.50;5010217;28;20053;-61
2022/09/30 01:16:09;;;;;;;22.27;16.65;;;;;;;4.82;100.00;100721.91;5012034;28;20433;-59
2022/09/30 01:18:56;;;;;;;22.50;16.48;;;;;;;4.82;100.00;100723.84;5011964;28;20046;-61
2022/09/30 01:21:44;;;;;;;22.83;17.40;;;;;;;4.79;100.00;100719.72;5011239;28;20045;-58
2022/09/30 01:24:40;;;;;;;23.20;17.20;;;;;;;4.67;100.00;100700.81;5010995;28;20034;-58
2022/09/30 01:27:12;;;;;;;23.13;16.92;;;;;;;4.76;100.00;100725.75;5009928;28;20041;-58
2022/09/30 01:29:40;;;;;;;23.45;16.92;;;;;;;4.75;100.00;100718.63;5012451;28;20038;-59
2022/09/30 01:32:48;;;;;;;22.58;17.27;;;;;;;4.72;100.00;100726.56;5015537;28;20034;-58
2022/09/30 01:35:19;;;;;;;23.73;18.15;;;;;;;4.69;100.00;100722.44;4954449;29;20043;-58
2022/09/30 01:38:18;;;;;;;24.58;17.98;;;;;;;4.65;100.00;100724.06;4955352;29;20035;-60
2022/09/30 01:41:23;;;;;;;23.58;17.85;;;;;;;4.60;100.00;100716.66;4998304;28;20104;-59
2022/09/30 01:44:12;;;;;;;23.02;17.65;;;;;;;4.58;100.00;100718.84;4916926;29;20126;-60
2022/09/30 01:47:07;;;;;;;24.15;17.15;;;;;;;4.57;100.00;100716.38;5011932;28;20152;-60
2022/09/30 01:49:45;;;;;;;23.35;16.90;;;;;;;4.52;100.00;100723.50;5016048;28;20068;-60
2022/09/30 01:52:18;;;;;;;22.23;17.17;;;;;;;4.51;100.00;100719.09;5015773;28;20034;-60
2022/09/30 01:54:58;;;;;;;23.73;17.88;;;;;;;4.49;100.00;100723.19;5014820;28;20597;-59
2022/09/30 01:57:32;;;;;;;23.40;18.02;;;;;;;4.45;100.00;100714.69;5014550;28;20057;-59
2022/09/30 02:00:08;;;;;;;23.05;17.70;;;;;;;4.32;100.00;100705.03;5014091;28;20099;-59
2022/09/30 02:03:18;;;;;;;23.25;16.98;;;;;;;4.45;100.00;100719.34;5014939;28;20034;-59
2022/09/30 02:06:05;;;;;;;23.45;17.60;;;;;;;4.43;100.00;100716.88;4954143;29;20133;-59
2022/09/30 02:08:40;;;;;;;23.45;17.17;;;;;;;4.40;100.00;100713.84;4953703;29;20031;-59
2022/09/30 02:11:14;;;;;;;23.42;17.75;;;;;;;4.28;100.00;100701.22;4995707;28;20494;-58
2022/09/30 02:13:59;;;;;;;24.55;18.30;;;;;;;4.27;100.00;100701.47;5014533;28;20057;-59
2022/09/30 02:16:31;;;;;;;24.77;18.23;;;;;;;4.35;100.00;100723.69;5014945;28;20056;-59
2022/09/30 02:19:08;;;;;;;23.33;17.05;;;;;;;4.35;100.00;100725.59;5012906;28;20182;-59
2022/09/30 02:21:39;;;;;;;23.17;17.05;;;;;;;4.29;100.00;100732.16;5014888;28;20108;-59
2022/09/30 02:24:09;;;;;;;22.65;16.75;;;;;;;4.09;100.00;100700.03;5014845;28;20068;-59
2022/09/30 02:26:41;;;;;;;23.42;18.02;;;;;;;4.24;100.00;100723.91;5014765;28;20108;-59
2022/09/30 02:29:14;;;;;;;23.70;17.45;;;;;;;4.24;100.00;100721.19;5014490;28;20390;-58
2022/09/30 02:31:43;;;;;;;24.42;18.08;;;;;;;4.15;100.00;100718.97;5014474;28;20462;-59
2022/09/30 02:34:21;;;;;;;24.17;18.95;;;;;;;4.25;100.00;100733.78;5013424;28;20096;-59
2022/09/30 02:36:59;;;;;;;25.00;18.83;;;;;;;4.25;100.00;100729.13;5014800;28;20048;-59
2022/09/30 02:39:32;;;;;;;26.00;18.60;;;;;;;4.20;100.00;100718.97;5014604;28;20125;-59
2022/09/30 02:42:06;;;;;;;26.73;19.08;;;;;;;4.19;100.00;100720.06;5013478;28;20037;-59
2022/09/30 02:44:32;;;;;;;23.98;18.38;;;;;;;4.20;100.00;100724.44;5014426;28;20481;-59
2022/09/30 02:47:15;;;;;;;24.30;18.15;;;;;;;4.17;100.00;100716.75;5014262;28;20105;-58
2022/09/30 02:49:49;;;;;;;24.10;17.70;;;;;;;4.06;100.00;100710.41;5014435;28;20022;-59
2022/09/30 02:52:39;;;;;;;24.52;18.27;;;;;;;4.14;100.00;100719.19;5014414;28;20061;-59
2022/09/30 02:55:33;;;;;;;25.27;18.80;;;;;;;4.14;100.00;100722.78;5013928;28;20041;-60
2022/09/30 02:58:21;;;;;;;25.50;18.73;;;;;;;4.13;100.00;100726.59;5013977;28;20029;-59
2022/09/30 03:00:47;;;;;;;25.90;18.77;;;;;;;4.12;100.00;100724.97;5013770;28;20125;-60
2022/09/30 03:03:24;;;;;;;27.02;19.10;;;;;;;4.09;100.00;100720.00;5014084;28;20176;-60
2022/09/30 03:05:49;;;;;;;26.95;20.30;;;;;;;4.09;100.00;100730.13;5014704;28;20060;-60
2022/09/30 03:08:15;;;;;;;26.75;20.00;;;;;;;4.06;100.00;100724.09;5014221;28;20053;-59
2022/09/30 03:10:41;;;;;;;26.70;18.90;;;;;;;4.03;100.00;100724.63;5013528;28;20072;-60
2022/09/30 03:13:18;;;;;;;27.08;18.90;;;;;;;4.04;100.00;100723.53;5013431;28;20065;-60
2022/09/30 03:16:16;;;;;;;25.13;19.40;;;;;;;4.02;100.00;100730.38;5013456;28;20034;-60
2022/09/30 03:19:26;;;;;;;27.10;20.25;;;;;;;4.02;100.00;100727.63;5005609;28;20073;-60
2022/09/30 03:22:04;;;;;;;25.63;20.15;;;;;;;3.98;100.00;100734.72;4997163;28;20499;-60
2022/09/30 03:25:09;;;;;;;28.30;21.02;;;;;;;3.97;100.00;100725.69;5013526;28;20133;-60
2022/09/30 03:27:59;;;;;;;26.25;20.13;;;;;;;3.95;100.00;100724.31;5013527;28;20481;-59
2022/09/30 03:30:25;;;;;;;27.92;20.45;;;;;;;3.90;100.00;100728.66;5013274;28;20057;-60
2022/09/30 03:33:20;;;;;;;27.15;20.52;;;;;;;3.84;100.00;100726.16;5013154;28;20034;-60
2022/09/30 03:35:51;;;;;;;26.60;20.50;;;;;;;3.85;100.00;100734.09;5013594;28;20415;-59
2022/09/30 03:38:41;;;;;;;27.25;19.95;;;;;;;3.80;100.00;100728.59;5013268;28;20100;-60
2022/09/30 03:41:18;;;;;;;25.70;19.20;;;;;;;3.84;100.00;100737.09;5012744;28;20033;-59
2022/09/30 03:43:49;;;;;;;27.00;19.88;;;;;;;3.81;100.00;100732.97;5013105;28;20129;-59
2022/09/30 03:46:41;;;;;;;26.17;19.45;;;;;;;3.83;100.00;100733.53;5013397;28;20105;-59
2022/09/30 03:49:12;;;;;;;26.83;20.55;;;;;;;3.73;100.00;100731.53;5012587;28;20482;-59
2022/09/30 03:51:39;;;;;;;26.83;20.38;;;;;;;3.75;100.00;100747.72;5011447;28;20060;-59
2022/09/30 03:54:10;;;;;;;27.65;20.23;;;;;;;3.73;100.00;100753.44;5013135;28;20454;-60
2022/09/30 03:56:41;;;;;;;27.20;20.02;;;;;;;3.68;100.00;100745.19;5012474;28;20026;-59
2022/09/30 03:59:10;;;;;;;25.98;20.67;;;;;;;3.71;100.00;100747.41;5014343;28;20084;-59
2022/09/30 04:01:35;;;;;;;27.52;19.92;;;;;;;3.71;100.00;100752.06;5013826;28;20021;-60
2022/09/30 04:04:00;;;;;;;27.17;19.67;;;;;;;3.68;100.00;100758.06;5013146;28;20030;-59
2022/09/30 04:06:26;;;;;;;26.98;20.35;;;;;;;3.68;100.00;100761.63;5013099;28;20029;-59
2022/09/30 04:08:52;;;;;;;27.35;20.80;;;;;;;3.61;100.00;100763.75;5012370;28;20032;-59
2022/09/30 04:11:18;;;;;;;29.05;20.85;;;;;;;3.63;100.00;100769.81;5012412;28;20044;-59
2022/09/30 04:13:43;;;;;;;28.20;21.00;;;;;;;3.61;100.00;100774.69;5010675;28;20053;-59
2022/09/30 04:16:09;;;;;;;27.58;20.55;;;;;;;3.63;100.00;100788.09;5011079;28;20029;-59
2022/09/30 04:18:38;;;;;;;27.63;20.45;;;;;;;3.56;100.00;100783.69;5012214;28;20028;-59
2022/09/30 04:21:12;;;;;;;26.58;20.33;;;;;;;3.50;100.00;100781.16;5011962;28;20107;-59
2022/09/30 04:23:39;;;;;;;27.48;21.35;;;;;;;3.49;100.00;100794.03;5012188;28;20022;-59
2022/09/30 04:26:06;;;;;;;28.42;22.35;;;;;;;3.60;100.00;100819.56;5012326;28;20038;-59
2022/09/30 04:28:33;;;;;;;29.95;22.38;;;;;;;3.59;100.00;100821.44;5012248;28;20500;-59
2022/09/30 04:31:03;;;;;;;29.20;21.90;;;;;;;3.53;100.00;100816.22;5012519;28;20061;-59
2022/09/30 04:33:28;;;;;;;28.85;21.88;;;;;;;3.54;100.00;100815.13;5012692;28;20060;-59
2022/09/30 04:35:58;;;;;;;28.23;21.35;;;;;;;3.54;100.00;100828.81;5012569;28;20018;-59
2022/09/30 04:38:24;;;;;;;28.73;22.50;;;;;;;3.51;100.00;100823.84;5012740;28;20123;-59
2022/09/30 04:40:50;;;;;;;27.98;21.45;;;;;;;3.47;100.00;100815.34;5012405;28;20026;-58
2022/09/30 04:43:17;;;;;;;26.80;20.02;;;;;;;3.46;100.00;100807.38;5012782;28;20033;-59
2022/09/30 04:45:44;;;;;;;29.13;21.98;;;;;;;3.47;100.00;100809.88;5012474;28;20096;-59
2022/09/30 04:48:10;;;;;;;29.05;21.77;;;;;;;3.49;100.00;100806.88;5012619;28;20042;-58
2022/09/30 04:50:35;;;;;;;30.80;22.73;;;;;;;3.48;100.00;100816.16;5011251;28;20330;-59
2022/09/30 04:53:02;;;;;;;29.35;23.10;;;;;;;3.48;100.00;100814.25;5012785;28;20030;-59
2022/09/30 04:55:28;;;;;;;29.35;22.65;;;;;;;3.47;100.00;100815.34;5011767;28;20033;-59
2022/09/30 04:57:53;;;;;;;30.02;22.25;;;;;;;3.47;100.00;100833.63;5010873;28;20033;-59
2022/09/30 05:00:19;;;;;;;30.10;23.48;;;;;;;3.46;100.00;100832.00;5011610;28;20105;-59
2022/09/30 05:02:44;;;;;;;29.55;22.23;;;;;;;3.43;100.00;100831.44;5011620;28;20473;-59
2022/09/30 05:05:10;;;;;;;29.50;22.45;;;;;;;3.42;100.00;100834.41;5018416;28;20026;-59
2022/09/30 05:07:35;;;;;;;30.08;23.38;;;;;;;3.41;100.00;100838.22;5018405;28;20034;-59
2022/09/30 05:10:00;;;;;;;29.80;23.35;;;;;;;3.34;100.00;100837.63;5018353;28;20033;-59
2022/09/30 05:12:26;;;;;;;30.27;22.55;;;;;;;3.37;100.00;100839.84;5017576;28;20046;-59
2022/09/30 05:14:51;;;;;;;32.25;23.35;;;;;;;3.34;100.00;100845.81;5017785;28;20058;-59
2022/09/30 05:17:16;;;;;;;28.95;22.17;;;;;;;3.33;100.00;100844.16;5017794;28;20025;-60
2022/09/30 05:19:42;;;;;;;30.92;22.05;;;;;;;3.31;100.00;100843.63;5018178;28;20040;-60
2022/09/30 05:22:07;;;;;;;30.88;23.52;;;;;;;3.31;100.00;100841.69;5018771;28;20018;-59
2022/09/30 05:24:32;;;;;;;29.75;22.08;;;;;;;3.30;100.00;100844.69;5019388;28;20476;-59
2022/09/30 05:26:57;;;;;;;31.13;23.52;;;;;;;3.26;100.00;100842.47;5019376;28;20038;-59
2022/09/30 05:29:23;;;;;;;30.48;23.55;;;;;;;3.27;100.00;100855.06;5019199;28;20433;-59
2022/09/30 05:31:48;;;;;;;31.50;24.05;;;;;;;3.26;100.00;100847.09;5018674;28;20037;-60
2022/09/30 05:34:15;;;;;;;31.77;24.10;;;;;;;3.25;100.00;100843.56;5018330;28;20033;-60
2022/09/30 05:36:44;;;;;;;31.92;24.35;;;;;;;3.27;100.00;100846.03;5018871;28;20049;-59
2022/09/30 05:39:10;;;;;;;31.63;24.42;;;;;;;3.26;100.00;100853.41;5018712;28;20026;-59
2022/09/30 05:41:36;;;;;;;29.75;22.95;;;;;;;3.24;100.00;100852.84;5018870;28;20029;-59
2022/09/30 05:44:01;;;;;;;32.53;23.20;;;;;;;3.26;100.00;100860.78;5018912;28;20476;-60
2022/09/30 05:46:27;;;;;;;31.48;23.95;;;;;;;3.28;100.00;100862.19;5018636;28;20357;-60
2022/09/30 05:48:56;;;;;;;32.05;24.25;;;;;;;3.32;100.00;100869.84;5018486;28;20038;-59
2022/09/30 05:51:22;;;;;;;33.45;24.85;;;;;;;3.31;100.00;100879.16;5019030;28;20115;-59
2022/09/30 05:53:47;;;;;;;32.88;23.85;;;;;;;3.34;100.00;100874.00;5019257;28;20052;-59
2022/09/30 05:56:13;;;;;;;33.53;25.27;;;;;;;3.36;100.00;100893.69;5019037;28;20046;-59
2022/09/30 05:58:40;;;;;;;31.30;23.45;;;;;;;3.39;100.00;100897.84;5019203;28;20032;-59
2022/09/30 06:01:11;;;;;;;32.30;24.52;;;;;;;3.36;100.00;100887.41;5028522;28;20044;-59
2022/09/30 06:03:37;;;;;;;32.78;23.50;;;;;;;3.40;100.00;100889.38;5038434;28;20037;-59
2022/09/30 06:06:03;;;;;;;30.45;22.77;;;;;;;3.41;100.00;100891.03;5038105;28;20033;-59
2022/09/30 06:08:29;;;;;;;30.17;23.05;;;;;;;3.46;100.00;100900.38;5038350;28;20112;-59
2022/09/30 06:10:57;;;;;;;32.33;23.27;;;;;;;3.47;100.00;100904.75;5038453;28;20508;-59
2022/09/30 06:13:24;;;;;;;31.55;23.08;;;;;;;3.47;100.00;100897.38;5038430;28;20049;-59
2022/09/30 06:15:57;;;;;;;30.63;23.40;;;;;;;3.47;100.00;100894.66;5035436;28;20053;-59
2022/09/30 06:18:24;;;;;;;31.95;23.83;;;;;;;3.56;100.00;100903.22;5035307;28;20025;-59
2022/09/30 06:20:50;;;;;;;31.50;23.33;;;;;;;3.62;100.00;100901.34;5034891;28;20026;-59
2022/09/30 06:23:16;;;;;;;32.83;23.73;;;;;;;3.65;100.00;100900.84;5034416;28;20034;-59
2022/09/30 06:25:42;;;;;;;32.72;24.33;;;;;;;3.70;100.00;100906.38;5035274;28;20061;-59
2022/09/30 06:28:07;;;;;;;31.75;24.83;;;;;;;3.75;100.00;100911.91;5034961;28;20333;-60
2022/09/30 06:30:33;;;;;;;33.15;25.55;;;;;;;3.80;100.00;100917.41;5035134;28;20041;-60
2022/09/30 06:33:00;;;;;;;32.28;25.17;;;;;;;3.83;100.00;100910.59;5035044;28;20025;-59
2022/09/30 06:35:27;;;;;;;34.53;25.45;;;;;;;3.88;100.00;100910.66;5033239;28;20377;-61
2022/09/30 06:37:53;;;;;;;34.20;26.10;;;;;;;3.94;100.00;100926.03;5034364;28;20021;-62
2022/09/30 06:40:20;;;;;;;34.42;26.52;;;;;;;3.98;100.00;100916.22;5034106;28;20040;-61
2022/09/30 06:42:46;;;;;;;35.00;26.75;;;;;;;4.08;100.00;100920.13;5035071;28;20539;-61
2022/09/30 06:45:12;;;;;;;36.53;27.38;;;;;;;4.18;100.00;100922.97;5034486;28;20329;-60
2022/09/30 06:47:37;;;;;;;37.20;28.50;;;;;;;4.26;100.00;100924.38;5033009;28;20022;-61
2022/09/30 06:50:03;;;;;;;37.65;28.98;;;;;;;4.32;100.00;100920.59;5034330;28;20033;-60
2022/09/30 06:52:28;;;;;;;38.63;29.17;;;;;;;4.41;100.00;100910.81;5032954;28;20029;-60
2022/09/30 06:54:56;;;;;;;38.95;29.75;;;;;;;4.47;100.00;100906.19;5034224;28;20033;-59
2022/09/30 06:57:23;;;;;;;40.67;30.02;;;;;;;4.52;100.00;100904.31;5015147;28;20473;-60
2022/09/30 06:59:49;;;;;;;37.72;29.42;;;;;;;4.60;100.00;100910.38;5012792;28;20037;-60
2022/09/30 07:02:15;;;;;;;42.83;32.42;;;;;;;4.69;100.00;100917.00;5013072;28;20026;-60
2022/09/30 07:04:41;;;;;;;40.22;31.70;;;;;;;4.76;100.00;100906.63;5011765;28;20022;-60
2022/09/30 07:07:06;;;;;;;44.58;33.28;;;;;;;4.81;100.00;100906.69;5011195;28;20457;-60
2022/09/30 07:09:32;;;;;;;42.63;34.65;;;;;;;4.90;100.00;100912.47;4993422;28;20403;-60
2022/09/30 07:11:57;;;;;;;41.60;33.47;;;;;;;4.97;100.00;100912.22;4993596;28;20030;-60
2022/09/30 07:14:22;;;;;;;43.90;32.58;;;;;;;5.05;100.00;100908.16;4992770;28;20389;-60
2022/09/30 07:16:51;;;;;;;40.58;32.63;;;;;;;5.15;100.00;100916.41;4995898;28;20033;-60
2022/09/30 07:19:19;;;;;;;44.35;33.55;;;;;;;5.16;100.00;100912.56;5025173;28;20132;-59
2022/09/30 07:21:44;;;;;;;43.08;33.22;;;;;;;5.29;100.00;100919.50;5032993;28;20410;-60
2022/09/30 07:24:10;;;;;;;42.70;33.22;;;;;;;5.38;100.00;100920.63;5032664;28;20119;-61
2022/09/30 07:26:36;;;;;;;44.80;34.85;;;;;;;5.44;100.00;100922.28;5032462;28;20022;-61
2022/09/30 07:29:01;;;;;;;44.40;34.92;;;;;;;5.52;100.00;100920.97;5033135;28;20056;-61
2022/09/30 07:31:27;;;;;;;43.13;34.88;;;;;;;5.60;100.00;100914.94;5031715;28;20160;-60
2022/09/30 07:33:55;;;;;;;44.75;34.50;;;;;;;5.66;100.00;100913.03;5032854;28;20358;-61
2022/09/30 07:36:26;;;;;;;42.58;34.35;;;;;;;5.76;100.00;100926.75;5032750;28;20045;-58
2022/09/30 07:38:52;;;;;;;43.95;34.42;;;;;;;5.84;100.00;100919.09;5032605;28;20034;-60
2022/09/30 07:41:25;;;;;;;44.10;35.47;;;;;;;5.90;100.00;100927.03;5030940;28;20034;-60
2022/09/30 07:43:51;;;;;;;42.00;34.97;;;;;;;6.00;100.00;100931.78;5032722;28;20041;-59
2022/09/30 07:46:21;;;;;;;45.60;35.67;;;;;;;6.01;100.00;100913.34;5032194;28;20296;-59
2022/09/30 07:48:50;;;;;;;43.85;34.55;;;;;;;6.19;100.00;100928.47;5031944;28;20029;-58
2022/09/30 07:51:18;;;;;;;44.95;35.28;;;;;;;6.19;100.00;100915.56;5030653;28;20091;-60
2022/09/30 07:53:46;;;;;;;43.55;35.53;;;;;;;6.35;100.00;100923.81;5031645;28;20091;-60
2022/09/30 07:56:13;;;;;;;45.42;37.13;;;;;;;6.45;100.00;100923.81;5031639;28;20025;-60
2022/09/30 07:58:40;;;;;;;43.90;36.33;;;;;;;6.54;100.00;100921.31;5031997;28;20033;-59
2022/09/30 08:01:05;;;;;;;43.58;34.88;;;;;;;6.65;100.00;100920.19;5031184;28;20029;-59
2022/09/30 08:03:32;;;;;;;45.03;36.30;;;;;;;6.76;100.00;100923.72;5029871;28;20076;-59
2022/09/30 08:06:04;;;;;;;45.03;36.08;;;;;;;6.85;100.00;100915.75;5031376;28;20032;-59
2022/09/30 08:08:29;;;;;;;46.67;36.45;;;;;;;6.94;100.00;100916.00;5026802;28;20033;-60
2022/09/30 08:10:58;;;;;;;43.42;35.13;;;;;;;6.98;100.00;100901.41;5001679;28;20026;-60
2022/09/30 08:13:23;;;;;;;45.72;36.53;;;;;;;7.20;100.00;100911.22;5000665;28;20050;-59
2022/09/30 08:15:49;;;;;;;44.40;36.70;;;;;;;7.33;100.00;100907.88;4998564;28;20045;-60
2022/09/30 08:18:14;;;;;;;44.83;37.60;;;;;;;7.44;100.00;100910.56;4990980;28;20038;-60
2022/09/30 08:20:39;;;;;;;42.95;36.03;;;;;;;7.56;100.00;100912.97;4992016;28;20034;-59
2022/09/30 08:23:04;;;;;;;44.10;36.67;;;;;;;7.66;100.00;100910.16;4992163;28;20415;-59
2022/09/30 08:25:30;;;;;;;44.42;37.17;;;;;;;7.79;100.00;100906.75;4992226;28;20037;-60
2022/09/30 08:27:55;;;;;;;44.50;37.20;;;;;;;7.92;100.00;100915.50;4990936;28;20438;-59
2022/09/30 08:30:20;;;;;;;43.25;36.25;;;;;;;8.03;100.00;100913.50;4992153;28;20081;-59
2022/09/30 08:32:46;;;;;;;42.95;35.13;;;;;;;8.08;100.00;100905.19;4992028;28;20030;-59
2022/09/30 08:35:11;;;;;;;40.58;34.20;;;;;;;8.21;100.00;100907.28;5007285;28;20037;-59
2022/09/30 08:37:36;;;;;;;43.17;36.05;;;;;;;8.35;100.00;100909.38;5011228;28;20175;-59
2022/09/30 08:40:03;;;;;;;42.53;35.47;;;;;;;8.48;100.00;100908.75;5011188;28;20132;-59
2022/09/30 08:42:37;;;;;;;42.30;34.88;;;;;;;8.63;100.00;100909.69;5011488;28;20025;-59
2022/09/30 08:45:16;;;;;;;39.30;33.70;;;;;;;8.77;100.00;100915.34;5009909;28;20105;-60
2022/09/30 08:48:13;;;;;;;38.53;32.60;;;;;;;8.86;100.00;100917.19;5010055;28;20025;-60
2022/09/30 08:51:03;;;;;;;40.92;33.00;;;;;;;8.99;100.00;100928.59;5011533;28;20116;-60
2022/09/30 08:53:33;;;;;;;38.90;32.03;;;;;;;9.14;100.00;100925.69;5009584;28;20437;-60
2022/09/30 08:56:01;;;;;;;37.88;29.70;;;;;;;9.21;100.00;100937.19;5010071;28;20033;-60
2022/09/30 08:58:26;;;;;;;32.63;26.92;;;;;;;9.33;100.00;100942.28;5009987;28;20473;-59
2022/09/30 09:00:57;;;;;;;34.08;26.85;;;;;;;9.39;100.00;100925.66;5010049;28;20037;-60
2022/09/30 09:03:28;;;;;;;31.85;26.13;;;;;;;9.59;100.00;100925.38;5011376;28;20037;-60
2022/09/30 09:06:10;;;;;;;31.23;25.90;;;;;;;9.71;100.00;100919.41;5011308;28;20034;-60
2022/09/30 09:08:52;;;;;;;32.33;25.05;;;;;;;9.83;100.00;100925.28;5010928;28;20090;-60
2022/09/30 09:11:32;;;;;;;32.60;24.98;;;;;;;9.95;100.00;100912.97;5026504;28;20041;-60
2022/09/30 09:14:25;;;;;;;33.75;26.98;;;;;;;10.07;100.00;100910.56;5029190;28;20049;-60
2022/09/30 09:17:10;;;;;;;33.65;26.58;;;;;;;10.19;100.00;100921.16;5030457;28;20137;-60
2022/09/30 09:19:47;;;;;;;36.95;27.85;;;;;;;10.26;99.01;100926.31;5030138;28;20112;-59
2022/09/30 09:22:13;;;;;;;34.72;26.45;;;;;;;10.33;98.48;100921.19;5030623;28;20038;-61
2022/09/30 09:24:46;;;;;;;34.47;27.77;;;;;;;10.39;98.30;100910.91;5029365;28;20036;-57
2022/09/30 09:27:16;;;;;;;35.13;27.45;;;;;;;10.52;96.97;100912.91;5030192;28;20480;-57
2022/09/30 09:29:57;;;;;;;33.95;27.02;;;;;;;10.62;95.61;100914.66;5030726;28;20116;-60
2022/09/30 09:32:25;;;;;;;33.17;26.10;;;;;;;10.70;95.25;100926.97;5030480;28;20026;-59
2022/09/30 09:34:56;;;;;;;34.70;26.45;;;;;;;10.75;94.31;100938.75;5029996;28;20025;-60
2022/09/30 09:40:27;;;;;;;33.72;26.40;;;;;;;10.98;94.50;100935.28;5021544;28;20444;-61
2022/09/30 09:43:06;;;;;;;31.40;24.13;;;;;;;11.07;93.25;100936.22;5008587;28;20044;-60
2022/09/30 09:45:42;;;;;;;29.13;22.10;;;;;;;11.18;92.28;100937.66;5010306;28;20635;-60
2022/09/30 09:48:12;;;;;;;31.30;22.30;;;;;;;11.24;91.47;100932.84;5009519;28;20053;-60
2022/09/30 09:51:02;;;;;;;32.25;23.23;;;;;;;11.31;92.13;100927.69;5010026;28;20564;-58
2022/09/30 09:53:43;;;;;;;30.85;22.92;;;;;;;11.45;92.55;100918.53;5012143;28;20393;-58
2022/09/30 09:56:17;;;;;;;30.75;22.77;;;;;;;11.61;90.79;100925.41;5012891;28;20033;-60
2022/09/30 09:59:12;;;;;;;29.35;21.67;;;;;;;11.72;91.19;100914.91;5012710;28;20026;-59
2022/09/30 10:01:50;;;;;;;28.75;21.08;;;;;;;11.76;89.76;100907.56;5012897;28;20030;-59
2022/09/30 10:04:18;;;;;;;27.58;20.40;;;;;;;11.83;89.91;100896.06;5012779;28;20033;-59
2022/09/30 10:06:48;;;;;;;27.50;19.58;;;;;;;11.99;88.28;100905.72;5012931;28;20032;-59
2022/09/30 10:09:41;;;;;;;28.80;20.63;;;;;;;12.09;89.91;100904.63;5012709;28;20100;-59
2022/09/30 10:12:07;;;;;;;29.15;20.70;;;;;;;12.21;90.09;100903.25;5010951;28;20050;-59
2022/09/30 10:14:45;;;;;;;28.27;20.07;;;;;;;12.30;88.81;100916.03;5010643;28;20081;-60
2022/09/30 10:17:17;;;;;;;26.40;18.95;;;;;;;12.40;87.46;100911.34;5011305;28;20284;-59
2022/09/30 10:19:50;;;;;;;28.75;20.23;;;;;;;12.44;86.75;100906.81;5011668;28;20037;-58
2022/09/30 10:22:16;;;;;;;28.25;20.58;;;;;;;12.50;87.08;100919.41;5012013;28;20033;-59
2022/09/30 10:24:41;;;;;;;34.67;21.10;;;;;;;12.60;88.17;100930.25;5012703;28;20034;-59
2022/09/30 10:27:27;;;;;;;27.48;20.13;;;;;;;12.71;87.83;100914.13;5011147;28;20034;-59
2022/09/30 10:29:52;;;;;;;26.13;17.20;;;;;;;12.77;84.94;100910.09;5012691;28;20544;-61
2022/09/30 10:32:19;;;;;;;26.33;19.00;;;;;;;12.79;85.79;100910.59;5012714;28;20148;-59
2022/09/30 10:34:44;;;;;;;24.80;17.40;;;;;;;12.90;83.12;100916.69;5012874;28;20121;-59
2022/09/30 10:37:15;;;;;;;26.30;18.23;;;;;;;12.92;83.34;100922.75;5012878;28;20130;-60
2022/09/30 10:39:43;;;;;;;23.45;17.05;;;;;;;12.98;83.62;100917.88;5012222;28;20030;-59
2022/09/30 10:42:22;;;;;;;27.38;18.13;;;;;;;13.07;82.32;100924.25;5012067;28;20113;-59
2022/09/30 10:44:50;;;;;;;25.60;17.73;;;;;;;13.17;80.08;100923.13;5010425;28;20143;-60
2022/09/30 10:47:19;;;;;;;25.52;17.58;;;;;;;13.16;80.22;100907.63;5011512;28;20105;-59
2022/09/30 10:49:53;;;;;;;23.30;16.20;;;;;;;13.32;79.19;100919.09;5012076;28;20029;-59
2022/09/30 10:52:28;;;;;;;23.77;16.45;;;;;;;13.31;79.88;100897.22;5011842;28;20033;-60
2022/09/30 10:54:58;;;;;;;23.42;16.02;;;;;;;13.50;77.80;100919.16;5011548;28;20040;-60
2022/09/30 10:57:32;;;;;;;22.13;15.40;;;;;;;13.62;77.15;100908.25;5010438;28;20044;-60
2022/09/30 11:00:00;;;;;;;;;;;;;;;13.75;80.48;100920.34;5012668;28;20045;-60
2022/09/30 11:02:25;;;;;;;21.88;15.57;;;;;;;13.76;78.67;100921.16;5012210;28;19917;-59
2022/09/30 11:05:35;;;;;;;22.10;15.20;;;;;;;13.83;78.61;100913.16;5011916;28;20425;-59
2022/09/30 11:08:16;;;;;;;21.58;14.63;;;;;;;13.98;76.63;100911.84;4970229;28;20035;-59
2022/09/30 11:11:10;;;;;;;21.85;13.73;;;;;;;14.11;75.51;100912.81;5007894;28;20046;-59
2022/09/30 11:13:45;;;;;;;20.60;13.88;;;;;;;14.22;74.87;100913.28;5009901;28;20141;-58
2022/09/30 11:16:28;;;;;;;21.30;13.80;;;;;;;14.32;73.72;100907.38;5010092;28;20092;-59
2022/09/30 11:19:16;;;;;;;21.23;13.30;;;;;;;14.54;75.99;100902.75;5011933;28;20044;-59
2022/09/30 11:21:52;;;;;;;20.05;13.15;;;;;;;14.68;71.30;100906.16;4991382;28;20703;-60
2022/09/30 11:24:31;;;;;;;19.77;13.13;;;;;;;14.65;72.29;100888.16;5009944;28;20089;-60
2022/09/30 11:27:11;;;;;;;19.83;13.20;;;;;;;14.82;71.88;100906.78;5011686;28;20580;-59
2022/09/30 11:29:42;;;;;;;20.55;12.85;;;;;;;15.03;71.39;100913.56;5012864;28;20032;-60
2022/09/30 11:32:15;;;;;;;20.98;12.15;;;;;;;15.11;71.00;100882.88;5013332;28;20377;-60
2022/09/30 11:35:02;;;;;;;17.52;10.50;;;;;;;15.31;69.77;100894.41;5012235;28;20457;-60